createdAt,value
2023-04-20T00:01:25.077Z,12.43
2023-04-20T00:03:52.572Z,12.16
2023-04-20T00:06:21.906Z,11.90
2023-04-20T00:08:49.059Z,12.36
2023-04-20T00:11:16.052Z,12.93
2023-04-20T00:13:43.089Z,12.97
2023-04-20T00:16:10.026Z,12.77
2023-04-20T00:18:37.331Z,12.49
2023-04-20T00:21:04.614Z,12.25
2023-04-20T00:23:31.881Z,11.99
2023-04-20T00:25:59.027Z,11.74
2023-04-20T00:28:26.185Z,12.13
2023-04-20T00:30:53.340Z,12.69
2023-04-20T00:33:21.031Z,12.74
2023-04-20T00:35:48.029Z,12.57
2023-04-20T00:38:16.716Z,12.30
2023-04-20T00:40:44.606Z,12.04
2023-04-20T00:43:12.224Z,11.78
2023-04-20T00:45:39.313Z,11.51
2023-04-20T00:48:06.649Z,11.94
2023-04-20T00:50:34.233Z,12.50
2023-04-20T00:53:02.342Z,12.52
2023-04-20T00:55:29.854Z,12.22
2023-04-20T00:57:57.274Z,11.92
2023-04-20T01:00:26.196Z,11.62
2023-04-20T01:02:53.442Z,11.34
2023-04-20T01:05:21.205Z,11.06
2023-04-20T01:07:49.555Z,11.52
2023-04-20T01:10:16.585Z,12.12
2023-04-20T01:12:44.336Z,12.19
2023-04-20T01:15:11.361Z,12.01
2023-04-20T01:17:40.437Z,11.72
2023-04-20T01:20:11.736Z,11.41
2023-04-20T01:22:49.612Z,11.19
2023-04-20T01:25:16.941Z,10.98
2023-04-20T01:27:44.402Z,11.56
2023-04-20T01:30:14.665Z,12.20
2023-04-20T01:32:41.991Z,12.32
2023-04-20T01:35:09.624Z,12.18
2023-04-20T01:37:39.171Z,11.99
2023-04-20T01:40:11.589Z,11.76
2023-04-20T01:42:38.975Z,11.54
2023-04-20T01:45:06.859Z,11.32
2023-04-20T01:47:35.809Z,11.78
2023-04-20T01:50:03.298Z,12.35
2023-04-20T01:52:30.995Z,12.39
2023-04-20T01:54:57.953Z,12.19
2023-04-20T01:57:25.147Z,11.93
2023-04-20T01:59:52.158Z,11.66
2023-04-20T02:02:19.222Z,11.44
2023-04-20T02:04:46.317Z,11.21
2023-04-20T02:07:13.227Z,11.67
2023-04-20T02:09:40.356Z,12.27
2023-04-20T02:12:07.878Z,12.35
2023-04-20T02:14:34.893Z,12.20
2023-04-20T02:17:02.192Z,11.94
2023-04-20T02:19:29.806Z,11.69
2023-04-20T02:21:56.866Z,11.43
2023-04-20T02:24:24.038Z,11.80
2023-04-20T02:26:51.167Z,12.34
2023-04-20T02:29:18.275Z,12.41
2023-04-20T02:31:45.853Z,12.23
2023-04-20T02:34:16.336Z,11.98
2023-04-20T02:36:43.321Z,11.77
2023-04-20T02:39:13.235Z,11.55
2023-04-20T02:41:40.706Z,11.31
2023-04-20T02:44:09.188Z,11.79
2023-04-20T02:46:38.014Z,12.40
2023-04-20T02:49:05.115Z,12.50
2023-04-20T02:51:35.628Z,12.33
2023-04-20T02:54:03.612Z,12.09
2023-04-20T02:56:32.090Z,11.84
2023-04-20T02:59:04.095Z,11.59
2023-04-20T03:01:49.577Z,12.06
2023-04-20T03:04:21.144Z,12.56
2023-04-20T03:06:58.903Z,12.55
2023-04-20T03:09:29.103Z,12.34
2023-04-20T03:12:23.236Z,12.07
2023-04-20T03:14:56.301Z,11.84
2023-04-20T03:17:30.921Z,11.61
2023-04-20T03:19:57.972Z,12.09
2023-04-20T03:22:24.946Z,12.67
2023-04-20T03:24:54.056Z,12.74
2023-04-20T03:27:39.715Z,12.51
2023-04-20T03:30:10.941Z,12.23
2023-04-20T03:32:38.725Z,11.97
2023-04-20T03:35:06.669Z,11.75
2023-04-20T03:37:34.060Z,11.59
2023-04-20T03:40:01.132Z,11.43
2023-04-20T03:42:28.178Z,11.95
2023-04-20T03:44:55.313Z,12.57
2023-04-20T03:47:22.373Z,12.66
2023-04-20T03:49:49.854Z,12.52
2023-04-20T03:52:16.919Z,12.30
2023-04-20T03:54:43.886Z,12.08
2023-04-20T03:57:11.887Z,11.86
2023-04-20T03:59:39.234Z,12.28
2023-04-20T04:02:06.495Z,12.88
2023-04-20T04:04:33.964Z,12.98
2023-04-20T04:07:01.399Z,12.85
2023-04-20T04:09:28.437Z,12.65
2023-04-20T04:11:55.361Z,12.53
2023-04-20T04:14:23.252Z,12.48
2023-04-20T04:16:50.602Z,12.49
2023-04-20T04:19:18.521Z,13.31
2023-04-20T04:21:46.522Z,14.30
2023-04-20T04:24:14.243Z,14.73
2023-04-20T04:26:56.757Z,14.89
2023-04-20T04:29:25.821Z,15.02
2023-04-20T04:31:53.825Z,15.01
2023-04-20T04:34:21.376Z,15.11
2023-04-20T04:36:50.924Z,15.20
2023-04-20T04:39:22.436Z,15.26
2023-04-20T04:41:58.712Z,15.33
2023-04-20T04:44:34.265Z,16.19
2023-04-20T04:47:05.605Z,17.01
2023-04-20T04:49:32.928Z,17.25
2023-04-20T04:52:00.316Z,17.21
2023-04-20T04:54:27.296Z,17.16
2023-04-20T04:56:54.261Z,17.06
2023-04-20T04:59:21.514Z,16.86
2023-04-20T05:01:48.483Z,16.51
2023-04-20T05:04:58.952Z,16.24
2023-04-20T05:07:26.398Z,15.90
2023-04-20T05:09:53.885Z,15.61
2023-04-20T05:12:20.888Z,15.37
2023-04-20T05:14:49.848Z,15.17
2023-04-20T05:17:16.876Z,15.01
2023-04-20T05:19:44.035Z,14.92
2023-04-20T05:22:11.115Z,14.87
2023-04-20T05:24:38.065Z,14.89
2023-04-20T05:27:05.061Z,14.88
2023-04-20T05:29:32.579Z,15.47
2023-04-20T05:31:59.826Z,16.18
2023-04-20T05:34:26.820Z,16.39
2023-04-20T05:36:54.998Z,16.51
2023-04-20T05:39:21.980Z,16.60
2023-04-20T05:41:48.941Z,16.54
2023-04-20T05:44:15.960Z,16.36
2023-04-20T05:46:42.952Z,16.26
2023-04-20T05:49:09.904Z,16.12
2023-04-20T05:51:37.485Z,15.95
2023-04-20T05:54:04.752Z,15.74
2023-04-20T05:56:31.866Z,15.59
2023-04-20T05:58:58.882Z,15.81
2023-04-20T06:01:25.947Z,16.55
2023-04-20T06:03:53.214Z,17.47
2023-04-20T06:06:20.468Z,18.29
2023-04-20T06:08:47.593Z,18.90
2023-04-20T06:11:14.465Z,19.49
2023-04-20T06:13:41.507Z,19.32
2023-04-20T06:16:11.027Z,19.44
2023-04-20T06:18:38.256Z,19.24
2023-04-20T06:21:05.236Z,19.62
2023-04-20T06:23:32.795Z,19.64
2023-04-20T06:25:59.956Z,19.21
2023-04-20T06:28:27.050Z,19.71
2023-04-20T06:30:53.945Z,19.86
2023-04-20T06:33:21.511Z,19.92
2023-04-20T06:35:48.434Z,19.82
2023-04-20T06:38:15.676Z,19.87
2023-04-20T06:40:42.564Z,19.97
2023-04-20T06:43:09.568Z,20.14
2023-04-20T06:45:36.609Z,20.61
2023-04-20T06:48:03.669Z,21.20
2023-04-20T06:50:30.905Z,21.74
2023-04-20T06:52:57.850Z,22.23
2023-04-20T06:55:24.807Z,22.60
2023-04-20T06:57:51.818Z,22.72
2023-04-20T07:00:19.443Z,21.94
2023-04-20T07:02:47.505Z,22.37
2023-04-20T07:05:15.125Z,22.59
2023-04-20T07:07:42.471Z,22.55
2023-04-20T07:10:10.169Z,22.10
2023-04-20T07:12:37.273Z,22.34
2023-04-20T07:15:05.057Z,21.52
2023-04-20T07:17:32.324Z,20.93
2023-04-20T07:20:05.949Z,20.98
2023-04-20T07:22:36.997Z,21.45
2023-04-20T07:25:05.065Z,21.09
2023-04-20T07:27:35.289Z,21.65
2023-04-20T07:30:02.341Z,21.20
2023-04-20T07:32:29.864Z,21.45
2023-04-20T07:34:56.857Z,21.89
2023-04-20T07:37:26.848Z,22.22
2023-04-20T07:39:54.308Z,22.74
2023-04-20T07:42:21.904Z,23.15
2023-04-20T07:44:49.246Z,23.29
2023-04-20T07:47:16.511Z,23.43
2023-04-20T07:49:43.929Z,23.62
2023-04-20T07:52:16.784Z,23.76
2023-04-20T07:54:45.553Z,23.54
2023-04-20T07:57:12.524Z,24.02
2023-04-20T07:59:40.884Z,24.32
2023-04-20T08:02:08.116Z,23.84
2023-04-20T08:04:38.343Z,23.82
2023-04-20T08:07:05.715Z,23.78
2023-04-20T08:09:32.843Z,23.73
2023-04-20T08:12:00.663Z,24.22
2023-04-20T08:14:27.725Z,24.64
2023-04-20T08:16:54.747Z,25.15
2023-04-20T08:19:21.927Z,25.50
2023-04-20T08:21:48.962Z,25.70
2023-04-20T08:24:16.461Z,25.67
2023-04-20T08:26:43.561Z,25.67
2023-04-20T08:29:10.844Z,25.86
2023-04-20T08:31:38.241Z,26.00
2023-04-20T08:34:05.216Z,26.04
2023-04-20T08:36:32.334Z,26.14
2023-04-20T08:39:10.182Z,25.34
2023-04-20T08:41:37.170Z,23.80
2023-04-20T08:44:04.248Z,23.69
2023-04-20T08:46:31.346Z,24.24
2023-04-20T08:48:58.368Z,24.86
2023-04-20T08:51:25.792Z,24.56
2023-04-20T08:53:52.692Z,23.96
2023-04-20T08:56:19.611Z,24.50
2023-04-20T08:58:46.647Z,24.76
2023-04-20T09:01:17.708Z,24.47
2023-04-20T09:03:47.269Z,25.03
2023-04-20T09:06:17.991Z,25.01
2023-04-20T09:08:50.173Z,24.76
2023-04-20T09:11:32.556Z,23.41
2023-04-20T09:14:10.111Z,23.37
2023-04-20T09:16:37.792Z,23.63
2023-04-20T09:19:05.916Z,22.91
2023-04-20T09:21:33.840Z,23.24
2023-04-20T09:24:02.506Z,23.05
2023-04-20T09:26:34.147Z,23.54
2023-04-20T09:29:04.540Z,23.50
2023-04-20T09:31:35.806Z,23.00
2023-04-20T09:34:03.451Z,23.09
2023-04-20T09:36:54.493Z,23.42
2023-04-20T09:39:22.858Z,23.06
2023-04-20T09:41:50.924Z,23.59
2023-04-20T09:44:18.521Z,24.17
2023-04-20T09:46:46.661Z,24.32
2023-04-20T09:49:14.234Z,24.17
2023-04-20T09:51:45.374Z,23.99
2023-04-20T09:54:12.763Z,23.89
2023-04-20T09:56:39.848Z,23.88
2023-04-20T09:59:08.011Z,23.64
2023-04-20T10:01:36.475Z,23.51
2023-04-20T10:04:14.418Z,23.10
2023-04-20T10:06:52.314Z,22.77
2023-04-20T10:09:24.516Z,22.37
2023-04-20T10:11:54.600Z,22.41
2023-04-20T10:14:24.145Z,22.39
2023-04-20T10:17:05.416Z,22.00
2023-04-20T10:19:40.248Z,22.18
2023-04-20T10:22:08.226Z,22.21
2023-04-20T10:24:38.144Z,21.11
2023-04-20T10:27:18.615Z,20.98
2023-04-20T10:29:45.941Z,20.82
2023-04-20T10:32:26.099Z,21.14
2023-04-20T10:35:07.822Z,21.20
2023-04-20T10:37:36.023Z,21.51
2023-04-20T10:40:07.403Z,21.66
2023-04-20T10:42:43.525Z,21.85
2023-04-20T10:45:11.427Z,21.99
2023-04-20T10:47:41.139Z,21.63
2023-04-20T10:50:12.747Z,21.71
2023-04-20T10:52:41.550Z,21.35
2023-04-20T10:55:22.067Z,21.49
2023-04-20T10:57:49.714Z,21.85
2023-04-20T11:00:20.952Z,21.98
2023-04-20T11:02:52.355Z,22.31
2023-04-20T11:05:20.406Z,22.59
2023-04-20T11:07:58.885Z,22.70
2023-04-20T11:10:38.624Z,22.79
2023-04-20T11:13:07.499Z,22.91
2023-04-20T11:15:35.165Z,23.02
2023-04-20T11:18:09.231Z,23.09
2023-04-20T11:20:36.636Z,22.82
2023-04-20T11:23:05.900Z,21.99
2023-04-20T11:25:32.815Z,21.70
2023-04-20T11:28:10.730Z,21.17
2023-04-20T11:30:41.527Z,21.55
2023-04-20T11:33:08.926Z,21.61
2023-04-20T11:35:37.907Z,21.71
2023-04-20T11:38:05.204Z,22.02
2023-04-20T11:40:32.236Z,22.54
2023-04-20T11:43:00.277Z,22.97
2023-04-20T11:45:30.536Z,23.14
2023-04-20T11:47:58.218Z,23.35
2023-04-20T11:50:25.988Z,23.50
2023-04-20T11:52:52.965Z,23.91
2023-04-20T11:55:21.071Z,24.11
2023-04-20T11:57:48.005Z,24.16
2023-04-20T12:00:15.494Z,24.17
2023-04-20T12:02:42.774Z,24.08
2023-04-20T12:05:10.196Z,23.99
2023-04-20T12:07:37.421Z,23.90
2023-04-20T12:10:05.231Z,23.83
2023-04-20T12:12:32.590Z,24.04
2023-04-20T12:14:59.521Z,24.07
2023-04-20T12:17:26.576Z,24.22
2023-04-20T12:19:53.498Z,24.44
2023-04-20T12:22:20.530Z,24.78
2023-04-20T12:24:47.501Z,25.00
2023-04-20T12:27:14.396Z,25.00
2023-04-20T12:29:41.327Z,24.74
2023-04-20T12:32:08.381Z,24.40
2023-04-20T12:34:35.703Z,24.11
2023-04-20T12:37:02.634Z,23.82
2023-04-20T12:39:29.671Z,23.56
2023-04-20T12:41:58.106Z,23.55
2023-04-20T12:44:25.054Z,23.49
2023-04-20T12:46:52.014Z,23.27
2023-04-20T12:49:19.272Z,23.07
2023-04-20T12:51:46.429Z,22.83
2023-04-20T12:54:13.423Z,21.55
2023-04-20T12:56:40.302Z,21.66
2023-04-20T12:59:07.210Z,21.71
2023-04-20T13:01:34.609Z,21.56
2023-04-20T13:04:02.023Z,21.55
2023-04-20T13:06:29.240Z,21.15
2023-04-20T13:08:56.595Z,20.89
2023-04-20T13:11:24.888Z,20.74
2023-04-20T13:13:52.907Z,20.68
2023-04-20T13:16:19.871Z,20.53
2023-04-20T13:18:46.917Z,20.34
2023-04-20T13:21:13.876Z,20.20
2023-04-20T13:23:40.840Z,20.14
2023-04-20T13:26:08.058Z,20.11
2023-04-20T13:28:35.936Z,19.99
2023-04-20T13:31:02.922Z,19.66
2023-04-20T13:33:30.365Z,19.30
2023-04-20T13:35:57.396Z,19.05
2023-04-20T13:38:24.364Z,18.90
2023-04-20T13:40:51.415Z,18.75
2023-04-20T13:43:20.764Z,18.73
2023-04-20T13:45:48.584Z,18.73
2023-04-20T13:48:15.628Z,18.68
2023-04-20T13:50:42.513Z,18.55
2023-04-20T13:53:09.517Z,18.46
2023-04-20T13:55:36.527Z,18.53
2023-04-20T13:58:03.510Z,18.23
2023-04-20T14:00:31.350Z,18.23
2023-04-20T14:02:59.868Z,18.33
2023-04-20T14:05:26.960Z,18.15
2023-04-20T14:07:53.908Z,18.07
2023-04-20T14:10:20.891Z,18.19
2023-04-20T14:12:48.537Z,18.32
2023-04-20T14:15:15.542Z,18.42
2023-04-20T14:17:42.778Z,18.45
2023-04-20T14:20:11.855Z,18.43
2023-04-20T14:22:38.927Z,18.40
2023-04-20T14:25:06.731Z,18.39
2023-04-20T14:27:34.073Z,18.34
2023-04-20T14:30:01.208Z,18.30
2023-04-20T14:32:29.949Z,18.21
2023-04-20T14:34:56.955Z,17.98
2023-04-20T14:37:25.181Z,17.98
2023-04-20T14:39:52.121Z,18.06
2023-04-20T14:42:19.377Z,18.10
2023-04-20T14:44:47.907Z,17.89
2023-04-20T14:47:15.598Z,17.82
2023-04-20T14:49:42.730Z,17.89
2023-04-20T14:52:09.710Z,17.79
2023-04-20T14:54:36.855Z,17.78
2023-04-20T14:57:03.905Z,17.94
2023-04-20T14:59:33.643Z,18.00
2023-04-20T15:02:03.468Z,17.97
2023-04-20T15:04:31.318Z,17.98
2023-04-20T15:06:58.502Z,18.03
2023-04-20T15:09:27.011Z,18.02
2023-04-20T15:11:54.469Z,18.05
2023-04-20T15:14:21.772Z,18.00
2023-04-20T15:16:48.835Z,17.77
2023-04-20T15:19:15.954Z,17.64
2023-04-20T15:21:44.197Z,17.50
2023-04-20T15:24:11.790Z,17.48
2023-04-20T15:26:38.866Z,17.57
2023-04-20T15:29:06.547Z,17.54
2023-04-20T15:31:34.151Z,17.44
2023-04-20T15:34:01.102Z,17.43
2023-04-20T15:36:28.656Z,17.39
2023-04-20T15:38:57.687Z,17.28
2023-04-20T15:41:25.126Z,17.11
2023-04-20T15:43:52.101Z,17.10
2023-04-20T15:46:23.336Z,16.96
2023-04-20T15:48:50.844Z,16.93
2023-04-20T15:51:20.137Z,16.43
2023-04-20T15:53:50.763Z,16.42
2023-04-20T15:56:22.747Z,16.44
2023-04-20T15:58:50.819Z,16.50
2023-04-20T16:01:18.825Z,16.27
2023-04-20T16:03:46.669Z,16.21
2023-04-20T16:06:13.960Z,16.22
2023-04-20T16:08:41.488Z,16.17
2023-04-20T16:11:08.470Z,15.67
2023-04-20T16:13:36.537Z,15.30
2023-04-20T16:16:03.728Z,15.17
2023-04-20T16:18:32.275Z,15.11
2023-04-20T16:20:59.323Z,15.27
2023-04-20T16:23:26.481Z,15.15
2023-04-20T16:25:53.477Z,15.04
2023-04-20T16:28:20.833Z,14.89
2023-04-20T16:30:47.878Z,15.05
2023-04-20T16:33:15.559Z,15.05
2023-04-20T16:35:42.716Z,14.91
2023-04-20T16:38:10.803Z,14.94
2023-04-20T16:40:38.067Z,14.97
2023-04-20T16:43:04.986Z,14.79
2023-04-20T16:45:32.837Z,14.79
2023-04-20T16:47:59.775Z,14.72
2023-04-20T16:50:26.903Z,14.56
2023-04-20T16:52:54.497Z,14.51
2023-04-20T16:55:21.481Z,14.37
2023-04-20T16:57:48.400Z,14.35
2023-04-20T17:00:15.927Z,14.43
2023-04-20T17:02:43.304Z,14.38
2023-04-20T17:05:10.775Z,14.33
2023-04-20T17:07:38.621Z,14.34
2023-04-20T17:10:06.205Z,14.33
2023-04-20T17:12:33.336Z,14.23
2023-04-20T17:15:00.966Z,14.21
2023-04-20T17:17:28.393Z,14.22
2023-04-20T17:19:55.538Z,14.19
2023-04-20T17:22:25.808Z,14.09
2023-04-20T17:24:53.521Z,13.99
2023-04-20T17:27:20.521Z,13.92
2023-04-20T17:29:47.740Z,13.90
2023-04-20T17:32:14.796Z,13.91
2023-04-20T17:34:44.488Z,13.89
2023-04-20T17:37:12.223Z,13.88
2023-04-20T17:39:39.241Z,13.86
2023-04-20T17:42:06.283Z,13.82
2023-04-20T17:44:33.240Z,13.79
2023-04-20T17:49:41.425Z,13.40
2023-04-20T17:52:09.539Z,13.44
2023-04-20T17:54:36.478Z,13.34
2023-04-20T17:57:03.768Z,13.30
2023-04-20T17:59:31.213Z,13.21
2023-04-20T18:01:58.453Z,13.17
2023-04-20T18:04:26.095Z,13.17
2023-04-20T18:06:53.520Z,13.17
2023-04-20T18:09:20.809Z,13.11
2023-04-20T18:11:48.014Z,13.12
2023-04-20T18:14:14.970Z,13.08
2023-04-20T18:16:42.085Z,13.02
2023-04-20T18:19:09.093Z,12.95
2023-04-20T18:21:36.875Z,12.90
2023-04-20T18:24:04.680Z,12.92
2023-04-20T18:26:32.793Z,12.96
2023-04-20T18:28:59.815Z,12.77
2023-04-20T18:31:27.819Z,12.79
2023-04-20T18:33:54.826Z,12.75
2023-04-20T18:36:21.773Z,12.76
2023-04-20T18:38:50.688Z,12.74
2023-04-20T18:41:18.135Z,12.72
2023-04-20T18:43:45.739Z,12.67
2023-04-20T18:46:12.622Z,12.65
2023-04-20T18:48:39.699Z,12.65
2023-04-20T18:51:06.810Z,12.62
2023-04-20T18:53:34.838Z,12.61
2023-04-20T18:56:02.362Z,12.57
2023-04-20T18:58:30.097Z,12.48
2023-04-20T19:00:57.287Z,12.41
2023-04-20T19:03:25.719Z,12.35
2023-04-20T19:05:52.810Z,12.30
2023-04-20T19:08:20.559Z,12.25
2023-04-20T19:10:47.498Z,12.22
2023-04-20T19:13:17.740Z,12.17
2023-04-20T19:15:45.085Z,12.13
2023-04-20T19:18:12.487Z,12.10
2023-04-20T19:20:39.507Z,12.07
2023-04-20T19:23:06.668Z,12.08
2023-04-20T19:25:36.770Z,12.07
2023-04-20T19:28:04.088Z,12.08
2023-04-20T19:30:31.521Z,12.07
2023-04-20T19:33:02.363Z,12.04
2023-04-20T19:35:29.717Z,12.01
2023-04-20T19:37:56.697Z,11.98
2023-04-20T19:40:24.891Z,11.98
2023-04-20T19:42:51.905Z,11.97
2023-04-20T19:45:18.988Z,11.95
2023-04-20T19:47:46.318Z,11.95
2023-04-20T19:50:14.030Z,11.94
2023-04-20T19:52:41.194Z,11.90
2023-04-20T19:55:08.475Z,11.87
2023-04-20T19:57:35.651Z,11.84
2023-04-20T20:00:02.780Z,11.83
2023-04-20T20:02:39.984Z,11.82
2023-04-20T20:05:07.770Z,11.82
2023-04-20T20:07:35.090Z,11.80
2023-04-20T20:10:03.587Z,11.79
2023-04-20T20:12:31.038Z,11.78
2023-04-20T20:14:57.995Z,11.77
2023-04-20T20:17:25.309Z,11.72
2023-04-20T20:19:53.741Z,11.71
2023-04-20T20:22:22.156Z,11.71
2023-04-20T20:24:51.242Z,11.70
2023-04-20T20:27:18.889Z,11.69
2023-04-20T20:29:45.875Z,11.67
2023-04-20T20:32:12.807Z,11.68
2023-04-20T20:34:39.754Z,11.68
2023-04-20T20:37:07.062Z,11.65
2023-04-20T20:39:34.001Z,11.62
2023-04-20T20:42:02.016Z,11.61
2023-04-20T20:44:32.870Z,11.63
2023-04-20T20:47:00.777Z,11.64
2023-04-20T20:49:27.809Z,11.65
2023-04-20T20:51:54.893Z,11.64
2023-04-20T20:54:21.917Z,11.64
2023-04-20T20:56:49.124Z,11.64
2023-04-20T20:59:16.224Z,11.65
2023-04-20T21:01:43.404Z,11.65
2023-04-20T21:04:10.498Z,11.66
2023-04-20T21:06:37.716Z,11.61
2023-04-20T21:09:04.837Z,12.10
2023-04-20T21:11:31.971Z,12.80
2023-04-20T21:14:01.923Z,13.01
2023-04-20T21:16:29.489Z,12.95
2023-04-20T21:18:56.673Z,12.80
2023-04-20T21:21:23.567Z,12.65
2023-04-20T21:23:50.700Z,12.49
2023-04-20T21:26:17.789Z,12.37
2023-04-20T21:28:44.844Z,12.27
2023-04-20T21:31:12.326Z,12.17
2023-04-20T21:33:39.388Z,12.08
2023-04-20T21:36:07.079Z,11.99
2023-04-20T21:38:34.356Z,11.92
2023-04-20T21:41:01.418Z,11.86
2023-04-20T21:43:28.674Z,11.80
2023-04-20T21:45:55.623Z,11.76
2023-04-20T21:48:22.893Z,11.72
2023-04-20T21:50:49.973Z,11.68
2023-04-20T21:53:17.196Z,11.66
2023-04-20T21:55:44.177Z,11.66
2023-04-20T21:58:11.774Z,11.64
2023-04-20T22:00:38.773Z,11.64
2023-04-20T22:03:05.927Z,11.63
2023-04-20T22:05:34.048Z,11.62
2023-04-20T22:08:01.414Z,11.61
2023-04-20T22:10:28.756Z,11.60
2023-04-20T22:12:56.039Z,11.59
2023-04-20T22:15:23.519Z,11.59
2023-04-20T22:17:50.725Z,11.58
2023-04-20T22:20:19.346Z,11.56
2023-04-20T22:22:46.510Z,11.54
2023-04-20T22:25:13.509Z,11.53
2023-04-20T22:27:40.744Z,11.52
2023-04-20T22:30:09.644Z,11.51
2023-04-20T22:32:37.765Z,11.48
2023-04-20T22:35:05.208Z,11.47
2023-04-20T22:37:32.312Z,11.46
2023-04-20T22:39:59.291Z,11.43
2023-04-20T22:42:26.517Z,11.43
2023-04-20T22:44:53.531Z,11.44
2023-04-20T22:47:20.933Z,11.45
2023-04-20T22:49:49.080Z,11.45
2023-04-20T22:52:16.147Z,11.46
2023-04-20T22:54:47.982Z,11.45
2023-04-20T22:57:15.851Z,11.44
2023-04-20T22:59:42.801Z,11.42
2023-04-20T23:02:10.331Z,11.94
2023-04-20T23:04:37.930Z,12.67
2023-04-20T23:07:05.124Z,12.88
2023-04-20T23:09:32.306Z,12.82
2023-04-20T23:11:59.592Z,12.63
2023-04-20T23:14:28.169Z,12.46
2023-04-20T23:16:55.092Z,12.28
2023-04-20T23:19:22.030Z,12.12
2023-04-20T23:21:48.913Z,11.99
2023-04-20T23:24:15.838Z,11.89
2023-04-20T23:26:42.908Z,11.83
2023-04-20T23:29:09.883Z,11.75
2023-04-20T23:31:37.421Z,11.66
2023-04-20T23:34:04.537Z,11.60
2023-04-20T23:36:32.616Z,11.53
2023-04-20T23:38:59.877Z,11.46
2023-04-20T23:41:26.939Z,11.40
2023-04-20T23:43:54.007Z,11.35
2023-04-20T23:46:21.037Z,11.32
2023-04-20T23:48:49.332Z,11.27
2023-04-20T23:51:16.243Z,11.21
2023-04-20T23:53:43.331Z,11.16
2023-04-20T23:56:10.744Z,11.12
2023-04-20T23:58:38.290Z,11.10
